Time;durP1;ratioP1;P1;durP2;ratioP2;P2;SDS_P1;SDS_P2;PMS_P1;PMS_P2;Temp;Humidity;BMP_temperature;BMP_pressure;BME280_temperature;BME280_humidity;BME280_pressure;Samples;Min_cycle;Max_cycle;Signal;HPM_P1;HPM_P2
2022/02/26 00:01:43;;;;;;;0.40;0.40;;;4.00;95.30;;;;;;4996537;28;20195;-72
2022/02/26 00:04:09;;;;;;;0.30;0.30;;;4.00;95.50;;;;;;4996735;28;20192;-72
2022/02/26 00:06:36;;;;;;;0.40;0.40;;;4.00;95.50;;;;;;4979232;28;20178;-72
2022/02/26 00:09:03;;;;;;;0.30;0.30;;;4.00;95.30;;;;;;4996732;28;20496;-71
2022/02/26 00:11:29;;;;;;;0.30;0.30;;;4.00;95.20;;;;;;4996353;28;20714;-72
2022/02/26 00:13:54;;;;;;;0.30;0.30;;;4.10;95.40;;;;;;4996608;28;20256;-72
2022/02/26 00:16:20;;;;;;;0.37;0.37;;;4.10;95.30;;;;;;4996828;28;20636;-72
2022/02/26 00:18:45;;;;;;;0.30;0.30;;;4.20;95.20;;;;;;4996696;28;20650;-72
2022/02/26 00:21:11;;;;;;;0.40;0.40;;;4.20;95.10;;;;;;4996570;28;20171;-72
2022/02/26 00:23:37;;;;;;;0.33;0.33;;;4.10;94.10;;;;;;4996502;28;20282;-72
2022/02/26 00:26:04;;;;;;;0.40;0.40;;;4.10;94.40;;;;;;4996497;28;20545;-72
2022/02/26 00:28:29;;;;;;;0.30;0.30;;;4.10;94.70;;;;;;4996463;28;20221;-72
2022/02/26 00:30:55;;;;;;;0.30;0.30;;;4.00;95.10;;;;;;4996176;28;20646;-72
2022/02/26 00:33:21;;;;;;;0.30;0.30;;;4.10;95.50;;;;;;4978596;28;20607;-72
2022/02/26 00:35:46;;;;;;;0.40;0.40;;;4.10;95.50;;;;;;4996214;28;20599;-72
2022/02/26 00:38:12;;;;;;;0.40;0.40;;;4.10;95.40;;;;;;4996181;28;20507;-72
2022/02/26 00:40:38;;;;;;;0.30;0.30;;;3.90;95.40;;;;;;4995957;28;20241;-72
2022/02/26 00:43:03;;;;;;;0.30;0.30;;;3.80;95.80;;;;;;4996205;28;20930;-71
2022/02/26 00:45:30;;;;;;;0.30;0.30;;;3.80;96.00;;;;;;4996157;28;20229;-72
2022/02/26 00:47:56;;;;;;;0.30;0.30;;;3.80;96.30;;;;;;4996134;28;20455;-72
2022/02/26 00:50:22;;;;;;;0.35;0.35;;;3.90;96.40;;;;;;4995761;28;20222;-72
2022/02/26 00:52:48;;;;;;;0.30;0.30;;;4.00;96.50;;;;;;4995759;28;20209;-72
2022/02/26 00:55:14;;;;;;;0.33;0.33;;;4.10;96.40;;;;;;4995920;28;20179;-72
2022/02/26 00:57:39;;;;;;;0.30;0.30;;;4.10;96.20;;;;;;4995925;28;20171;-72
2022/02/26 01:00:08;;;;;;;0.30;0.30;;;4.20;96.00;;;;;;4995775;28;20425;-72
2022/02/26 01:02:34;;;;;;;0.40;0.40;;;4.20;95.70;;;;;;4995520;28;20198;-72
2022/02/26 01:05:00;;;;;;;0.32;0.32;;;4.20;95.90;;;;;;4994969;28;20172;-72
2022/02/26 01:07:27;;;;;;;0.30;0.30;;;4.00;95.30;;;;;;4978283;28;20225;-72
2022/02/26 01:09:52;;;;;;;0.35;0.35;;;4.00;95.20;;;;;;4995334;28;20176;-72
2022/02/26 01:12:18;;;;;;;0.37;0.37;;;3.80;94.90;;;;;;4995276;28;20208;-72
2022/02/26 01:14:45;;;;;;;0.30;0.30;;;3.60;94.80;;;;;;4995363;28;20206;-72
2022/02/26 01:17:12;;;;;;;0.32;0.32;;;3.50;94.80;;;;;;4995560;28;20174;-72
2022/02/26 01:19:39;;;;;;;0.40;0.40;;;3.30;94.90;;;;;;4995350;28;20171;-72
2022/02/26 01:22:05;;;;;;;0.40;0.40;;;3.20;95.10;;;;;;4994893;28;20290;-72
2022/02/26 01:24:31;;;;;;;0.40;0.40;;;3.00;95.30;;;;;;4977744;28;20214;-72
2022/02/26 01:26:56;;;;;;;0.40;0.40;;;2.90;95.40;;;;;;4977894;28;20185;-72
2022/02/26 01:29:22;;;;;;;0.40;0.40;;;2.80;95.40;;;;;;4995100;28;20667;-72
2022/02/26 01:31:48;;;;;;;0.40;0.40;;;2.70;95.30;;;;;;4994889;28;20186;-72
2022/02/26 01:34:13;;;;;;;0.40;0.40;;;2.50;95.30;;;;;;4995021;28;20206;-72
2022/02/26 01:36:40;;;;;;;0.40;0.40;;;2.40;95.40;;;;;;4995115;28;20170;-72
2022/02/26 01:39:07;;;;;;;0.38;0.38;;;2.30;95.50;;;;;;4994903;28;20169;-71
2022/02/26 01:41:34;;;;;;;0.40;0.40;;;2.00;96.30;;;;;;4994953;28;20181;-71
2022/02/26 01:44:00;;;;;;;0.40;0.40;;;2.00;97.00;;;;;;4994888;28;20184;-71
2022/02/26 01:46:26;;;;;;;0.30;0.30;;;2.00;97.00;;;;;;4995073;28;20200;-72
2022/02/26 01:48:52;;;;;;;0.30;0.30;;;2.10;96.80;;;;;;4995048;28;20176;-72
2022/02/26 01:51:19;;;;;;;0.40;0.40;;;2.10;96.70;;;;;;4994738;28;20180;-72
2022/02/26 01:53:45;;;;;;;0.30;0.30;;;2.00;96.60;;;;;;4994709;28;20271;-72
2022/02/26 01:56:11;;;;;;;0.30;0.30;;;2.00;96.60;;;;;;4994874;28;20168;-72
2022/02/26 01:58:37;;;;;;;0.40;0.40;;;2.00;96.50;;;;;;4994874;28;20649;-71
2022/02/26 02:01:04;;;;;;;0.30;0.30;;;1.90;96.40;;;;;;4994436;28;20407;-72
2022/02/26 02:03:30;;;;;;;0.40;0.40;;;1.80;96.20;;;;;;4994524;28;20201;-71
2022/02/26 02:05:57;;;;;;;0.30;0.30;;;1.80;96.20;;;;;;4994629;28;20256;-72
2022/02/26 02:08:24;;;;;;;0.32;0.32;;;1.70;96.20;;;;;;4994442;28;20404;-72
2022/02/26 02:10:51;;;;;;;0.30;0.30;;;1.60;96.10;;;;;;4994447;28;20176;-71
2022/02/26 02:13:16;;;;;;;0.40;0.40;;;1.60;96.20;;;;;;4994106;28;20563;-72
2022/02/26 02:15:43;;;;;;;0.30;0.30;;;1.50;96.20;;;;;;4994336;28;20188;-71
2022/02/26 02:18:14;;;;;;;0.40;0.40;;;1.40;96.00;;;;;;4994341;28;20395;-72
2022/02/26 02:20:41;;;;;;;0.30;0.30;;;1.30;96.00;;;;;;4994433;28;20199;-71
2022/02/26 02:23:07;;;;;;;1.30;1.30;;;1.30;96.10;;;;;;4994220;28;20630;-72
2022/02/26 02:25:35;;;;;;;0.40;0.40;;;1.30;96.30;;;;;;4994504;28;20207;-71
2022/02/26 02:28:03;;;;;;;0.30;0.30;;;1.30;96.40;;;;;;4994346;28;20853;-72
2022/02/26 02:30:29;;;;;;;0.30;0.30;;;1.20;96.40;;;;;;4994463;28;20262;-72
2022/02/26 02:32:57;;;;;;;0.40;0.40;;;1.20;96.40;;;;;;4993969;28;20195;-72
2022/02/26 02:35:37;;;;;;;0.30;0.30;;;1.20;96.40;;;;;;4976804;28;20206;-71
2022/02/26 02:38:08;;;;;;;0.40;0.40;;;1.10;96.30;;;;;;4994359;28;20539;-72
2022/02/26 02:40:34;;;;;;;0.30;0.30;;;1.10;96.30;;;;;;4994101;28;20164;-72
2022/02/26 02:43:00;;;;;;;0.40;0.40;;;1.00;96.30;;;;;;4994016;28;20199;-72
2022/02/26 02:45:26;;;;;;;0.50;0.50;;;1.00;96.30;;;;;;4994112;28;20535;-71
2022/02/26 02:47:52;;;;;;;0.40;0.40;;;0.90;96.30;;;;;;4994138;28;20179;-72
2022/02/26 02:50:19;;;;;;;0.30;0.30;;;0.90;96.30;;;;;;4976739;28;20188;-72
2022/02/26 02:52:46;;;;;;;0.30;0.30;;;0.90;96.30;;;;;;4993866;28;20610;-72
2022/02/26 02:55:14;;;;;;;0.40;0.40;;;0.90;96.40;;;;;;4993927;28;20172;-72
2022/02/26 02:57:41;;;;;;;0.45;0.45;;;0.80;96.40;;;;;;4994150;28;20200;-72
2022/02/26 03:00:08;;;;;;;0.30;0.30;;;0.70;96.30;;;;;;4993782;28;20646;-72
2022/02/26 03:02:34;;;;;;;0.43;0.43;;;0.70;96.40;;;;;;4993788;28;20608;-72
2022/02/26 03:04:59;;;;;;;0.40;0.40;;;0.70;96.60;;;;;;4993913;28;20165;-72
2022/02/26 03:07:25;;;;;;;0.40;0.40;;;0.60;96.60;;;;;;4993999;28;20176;-72
2022/02/26 03:09:51;;;;;;;0.40;0.40;;;0.60;96.70;;;;;;4993812;28;20208;-72
2022/02/26 03:12:17;;;;;;;0.40;0.40;;;0.60;96.60;;;;;;4993492;28;20296;-72
2022/02/26 03:14:43;;;;;;;0.40;0.40;;;0.40;96.60;;;;;;4993972;28;20591;-72
2022/02/26 03:17:09;;;;;;;0.40;0.40;;;0.50;96.80;;;;;;4993886;28;20207;-71
2022/02/26 03:19:34;;;;;;;0.30;0.30;;;0.60;96.70;;;;;;4993894;28;20168;-72
2022/02/26 03:22:00;;;;;;;0.40;0.40;;;0.60;96.50;;;;;;4993460;28;20658;-72
2022/02/26 03:24:26;;;;;;;0.30;0.30;;;0.70;96.30;;;;;;4993910;28;20183;-71
2022/02/26 03:26:56;;;;;;;0.40;0.40;;;0.60;96.20;;;;;;4994827;28;20192;-72
2022/02/26 03:29:28;;;;;;;0.40;0.40;;;0.50;95.60;;;;;;4997943;28;20168;-72
2022/02/26 03:31:54;;;;;;;0.47;0.47;;;0.40;95.80;;;;;;4997301;28;20243;-71
2022/02/26 03:34:20;;;;;;;0.43;0.43;;;0.40;95.90;;;;;;4997286;28;20207;-72
2022/02/26 03:36:51;;;;;;;0.40;0.40;;;0.50;96.30;;;;;;4997262;28;20172;-71
2022/02/26 03:39:18;;;;;;;0.30;0.30;;;0.50;96.00;;;;;;4997508;28;20539;-72
2022/02/26 03:41:44;;;;;;;0.30;0.30;;;0.50;96.10;;;;;;4997004;28;20188;-72
2022/02/26 03:44:10;;;;;;;0.40;0.40;;;0.50;96.00;;;;;;4997167;28;20547;-71
2022/02/26 03:46:37;;;;;;;0.30;0.30;;;0.50;96.00;;;;;;4997255;28;20179;-72
2022/02/26 03:49:04;;;;;;;0.40;0.40;;;0.50;95.90;;;;;;4997229;28;20422;-72
2022/02/26 03:51:34;;;;;;;0.40;0.40;;;0.50;95.60;;;;;;4996763;28;20207;-72
2022/02/26 03:54:01;;;;;;;0.40;0.40;;;0.40;95.40;;;;;;4997096;28;20208;-71
2022/02/26 03:56:29;;;;;;;0.40;0.40;;;0.30;95.50;;;;;;4997017;28;20638;-71
2022/02/26 03:58:55;;;;;;;0.30;0.30;;;0.30;95.60;;;;;;4996968;28;20172;-72
2022/02/26 04:01:22;;;;;;;0.40;0.40;;;0.30;95.60;;;;;;4996600;28;20555;-72
2022/02/26 04:03:48;;;;;;;0.40;0.40;;;0.20;95.50;;;;;;4996776;28;20777;-71
2022/02/26 04:06:14;;;;;;;0.40;0.40;;;0.10;95.60;;;;;;4996978;28;20180;-71
2022/02/26 04:08:40;;;;;;;0.30;0.30;;;0.10;95.80;;;;;;4996767;28;20168;-71
2022/02/26 04:11:05;;;;;;;0.40;0.40;;;0.20;95.90;;;;;;4996740;28;20435;-71
2022/02/26 04:13:31;;;;;;;0.40;0.40;;;0.20;95.90;;;;;;4996418;28;20243;-72
2022/02/26 04:15:57;;;;;;;0.40;0.40;;;0.20;95.90;;;;;;4996821;28;20165;-71
2022/02/26 04:18:22;;;;;;;0.40;0.40;;;0.10;95.50;;;;;;4996689;28;20984;-71
2022/02/26 04:20:48;;;;;;;0.37;0.37;;;0.10;95.40;;;;;;4996327;28;20255;-71
2022/02/26 04:23:14;;;;;;;0.50;0.50;;;0.10;95.50;;;;;;4996413;28;20654;-71
2022/02/26 04:25:39;;;;;;;0.47;0.47;;;0.10;95.50;;;;;;4996517;28;20223;-71
2022/02/26 04:28:05;;;;;;;0.50;0.50;;;0.00;95.50;;;;;;4979084;28;20176;-71
2022/02/26 04:30:31;;;;;;;0.40;0.40;;;0.00;95.60;;;;;;4996279;28;20251;-72
2022/02/26 04:32:57;;;;;;;0.50;0.50;;;0.00;95.60;;;;;;4996032;28;20455;-72
2022/02/26 04:35:23;;;;;;;0.47;0.47;;;0.00;95.70;;;;;;4996436;28;20176;-72
2022/02/26 04:37:49;;;;;;;0.40;0.40;;;0.00;95.90;;;;;;4995418;28;20172;-72
2022/02/26 04:40:15;;;;;;;0.40;0.40;;;0.10;96.00;;;;;;4995524;28;20215;-72
2022/02/26 04:42:42;;;;;;;0.40;0.40;;;0.00;96.10;;;;;;4996186;28;20231;-71
2022/02/26 04:45:10;;;;;;;0.40;0.40;;;-0.10;95.80;;;;;;4996066;28;20168;-72
2022/02/26 04:47:37;;;;;;;0.30;0.30;;;-0.10;96.10;;;;;;4996175;28;20182;-72
2022/02/26 04:50:05;;;;;;;0.40;0.40;;;-0.10;96.10;;;;;;4996219;28;20172;-72
2022/02/26 04:52:31;;;;;;;0.40;0.40;;;-0.10;96.20;;;;;;4995806;28;20192;-72
2022/02/26 04:54:57;;;;;;;0.30;0.30;;;0.00;96.40;;;;;;4996010;28;20204;-71
2022/02/26 04:57:23;;;;;;;0.40;0.40;;;0.00;96.50;;;;;;4995963;28;20172;-71
2022/02/26 04:59:49;;;;;;;0.40;0.40;;;0.00;96.50;;;;;;4996045;28;20176;-71
2022/02/26 05:02:14;;;;;;;0.40;0.40;;;0.10;96.50;;;;;;4995599;28;20188;-72
2022/02/26 05:04:40;;;;;;;0.40;0.40;;;0.20;96.50;;;;;;4995687;28;20183;-71
2022/02/26 05:07:06;;;;;;;0.40;0.40;;;0.20;96.20;;;;;;4995358;28;20176;-72
2022/02/26 05:09:31;;;;;;;0.30;0.30;;;0.10;96.10;;;;;;4995694;28;20535;-71
2022/02/26 05:11:57;;;;;;;0.30;0.30;;;0.20;96.10;;;;;;4995249;28;20203;-72
2022/02/26 05:14:23;;;;;;;0.30;0.30;;;0.00;95.70;;;;;;4977973;28;20200;-72
2022/02/26 05:16:49;;;;;;;0.30;0.30;;;0.00;95.90;;;;;;4995364;28;20247;-71
2022/02/26 05:19:14;;;;;;;0.30;0.30;;;-0.10;95.80;;;;;;4995595;28;20187;-72
2022/02/26 05:21:40;;;;;;;0.40;0.40;;;-0.10;96.10;;;;;;4995193;28;20646;-72
2022/02/26 05:24:06;;;;;;;0.30;0.30;;;0.00;96.30;;;;;;4995295;28;20184;-72
2022/02/26 05:26:32;;;;;;;0.30;0.30;;;0.00;96.20;;;;;;4995440;28;20643;-71
2022/02/26 05:28:57;;;;;;;0.40;0.40;;;0.00;96.20;;;;;;4995440;28;20407;-71
2022/02/26 05:31:23;;;;;;;0.40;0.40;;;-0.10;96.00;;;;;;4994973;28;20900;-72
2022/02/26 05:33:49;;;;;;;0.40;0.40;;;-0.10;96.10;;;;;;4995305;28;20560;-72
2022/02/26 05:36:15;;;;;;;0.40;0.40;;;-0.20;96.10;;;;;;4995335;28;20586;-72
2022/02/26 05:38:40;;;;;;;0.40;0.40;;;-0.30;96.40;;;;;;4995000;28;20228;-72
2022/02/26 05:41:07;;;;;;;0.40;0.40;;;-0.30;96.90;;;;;;4994871;28;20168;-72
2022/02/26 05:43:34;;;;;;;0.30;0.30;;;-0.20;97.10;;;;;;4994912;28;20196;-71
2022/02/26 05:45:59;;;;;;;0.40;0.40;;;-0.20;97.00;;;;;;4995018;28;20183;-71
2022/02/26 05:48:25;;;;;;;0.30;0.30;;;-0.10;96.80;;;;;;4994916;28;20259;-72
2022/02/26 05:50:51;;;;;;;0.40;0.40;;;-0.20;96.30;;;;;;4994396;28;20255;-72
2022/02/26 05:53:16;;;;;;;0.40;0.40;;;-0.20;96.10;;;;;;4994642;28;20235;-72
2022/02/26 05:55:42;;;;;;;0.40;0.40;;;-0.20;96.20;;;;;;4994882;28;20199;-71
2022/02/26 05:58:08;;;;;;;0.30;0.30;;;-0.20;96.30;;;;;;4994912;28;20177;-72
2022/02/26 06:00:34;;;;;;;0.40;0.40;;;-0.10;96.30;;;;;;4994610;28;20180;-72
2022/02/26 06:03:00;;;;;;;0.40;0.40;;;-0.30;96.10;;;;;;4994526;28;20271;-71
2022/02/26 06:05:25;;;;;;;0.50;0.50;;;-0.20;96.50;;;;;;4993415;28;20259;-71
2022/02/26 06:07:51;;;;;;;0.50;0.50;;;-0.20;96.40;;;;;;4994659;28;20214;-72
2022/02/26 06:10:17;;;;;;;0.40;0.40;;;-0.10;96.60;;;;;;4994501;28;20168;-71
2022/02/26 06:12:42;;;;;;;0.40;0.40;;;0.00;96.50;;;;;;4994268;28;20211;-71
2022/02/26 06:15:09;;;;;;;0.50;0.50;;;0.00;96.40;;;;;;4994368;28;20179;-71
2022/02/26 06:17:36;;;;;;;0.40;0.40;;;0.00;96.20;;;;;;4994601;28;20172;-71
2022/02/26 06:20:03;;;;;;;0.47;0.47;;;0.10;96.10;;;;;;4994210;28;20171;-71
2022/02/26 06:22:29;;;;;;;0.40;0.40;;;0.10;95.90;;;;;;4976878;28;20202;-71
2022/02/26 06:24:55;;;;;;;0.40;0.40;;;0.10;96.10;;;;;;4994297;28;20642;-72
2022/02/26 06:27:20;;;;;;;0.40;0.40;;;0.10;95.70;;;;;;4994481;28;20176;-72
2022/02/26 06:29:46;;;;;;;0.30;0.30;;;0.10;95.60;;;;;;4994646;28;20263;-72
2022/02/26 06:32:12;;;;;;;1.73;1.63;;;-0.10;95.50;;;;;;4993987;28;20274;-72
2022/02/26 06:34:37;;;;;;;0.40;0.40;;;-0.10;95.80;;;;;;4994046;28;20475;-71
2022/02/26 06:37:04;;;;;;;0.40;0.40;;;0.00;96.10;;;;;;4994212;28;20172;-72
2022/02/26 06:39:29;;;;;;;0.30;0.30;;;0.00;95.40;;;;;;4994139;28;20416;-72
2022/02/26 06:41:55;;;;;;;0.30;0.30;;;0.00;95.50;;;;;;4994019;28;20196;-71
2022/02/26 06:44:21;;;;;;;0.50;0.50;;;0.00;95.50;;;;;;4994571;28;20933;-72
2022/02/26 06:46:47;;;;;;;0.40;0.40;;;0.10;95.40;;;;;;4976631;28;20928;-72
2022/02/26 06:49:14;;;;;;;0.40;0.40;;;0.10;95.30;;;;;;4994071;28;20195;-71
2022/02/26 06:51:40;;;;;;;0.30;0.30;;;0.10;95.20;;;;;;4993725;28;20689;-71
2022/02/26 06:54:05;;;;;;;0.40;0.40;;;0.20;95.20;;;;;;4993915;28;20224;-72
2022/02/26 06:56:33;;;;;;;0.40;0.40;;;0.30;95.20;;;;;;4994147;28;20411;-71
2022/02/26 06:58:59;;;;;;;0.30;0.30;;;0.30;95.20;;;;;;4994127;28;20527;-71
2022/02/26 07:01:24;;;;;;;0.30;0.30;;;0.30;95.20;;;;;;4994212;28;20177;-72
2022/02/26 07:03:50;;;;;;;0.40;0.40;;;0.40;95.10;;;;;;4980472;28;20179;-71
2022/02/26 07:06:16;;;;;;;0.40;0.40;;;0.50;94.80;;;;;;4997996;28;20650;-71
2022/02/26 07:08:42;;;;;;;0.30;0.30;;;0.60;94.70;;;;;;4997956;28;20446;-71
2022/02/26 07:11:08;;;;;;;0.40;0.40;;;0.60;94.70;;;;;;4997695;28;20238;-72
2022/02/26 07:13:33;;;;;;;0.30;0.30;;;0.60;94.50;;;;;;4997495;28;20211;-72
2022/02/26 07:15:59;;;;;;;0.40;0.40;;;0.60;94.30;;;;;;4997700;28;20191;-71
2022/02/26 07:18:25;;;;;;;0.30;0.30;;;0.60;94.50;;;;;;4997729;28;20171;-72
2022/02/26 07:20:51;;;;;;;0.40;0.40;;;0.70;94.70;;;;;;4997554;28;20875;-71
2022/02/26 07:23:18;;;;;;;0.30;0.30;;;0.90;94.60;;;;;;4997528;28;20434;-72
2022/02/26 07:25:45;;;;;;;0.40;0.40;;;0.90;94.10;;;;;;4997659;28;20637;-72
2022/02/26 07:28:12;;;;;;;0.30;0.30;;;1.00;94.00;;;;;;4979927;28;20274;-72
2022/02/26 07:30:38;;;;;;;0.30;0.30;;;1.20;93.90;;;;;;4997281;28;20184;-71
2022/02/26 07:33:04;;;;;;;0.30;0.30;;;1.40;94.70;;;;;;4997203;28;20228;-72
2022/02/26 07:35:30;;;;;;;0.30;0.30;;;2.20;96.00;;;;;;4997635;28;20221;-72
2022/02/26 07:37:56;;;;;;;0.30;0.30;;;3.60;95.30;;;;;;4979878;28;20179;-71
2022/02/26 07:40:21;;;;;;;0.40;0.40;;;5.60;85.80;;;;;;4997209;28;20175;-72
2022/02/26 07:42:48;;;;;;;0.37;0.37;;;7.30;76.90;;;;;;4997118;28;20723;-72
2022/02/26 07:45:15;;;;;;;0.50;0.50;;;9.40;66.40;;;;;;4997190;28;20169;-72
2022/02/26 07:47:41;;;;;;;0.40;0.40;;;10.50;55.80;;;;;;4979736;28;20178;-72
2022/02/26 07:50:07;;;;;;;0.30;0.30;;;10.60;54.40;;;;;;4997130;28;20186;-72
2022/02/26 07:52:33;;;;;;;0.30;0.30;;;11.20;53.30;;;;;;4997095;28;20790;-72
2022/02/26 07:55:05;;;;;;;0.30;0.30;;;12.70;51.90;;;;;;4996882;28;20196;-72
2022/02/26 07:57:31;;;;;;;0.30;0.30;;;13.80;48.00;;;;;;4996893;28;20180;-72
2022/02/26 07:59:57;;;;;;;0.30;0.30;;;14.20;46.10;;;;;;4996773;28;20271;-70
2022/02/26 08:02:23;;;;;;;0.65;0.65;;;14.50;44.30;;;;;;4996995;28;20188;-70
2022/02/26 08:04:49;;;;;;;0.30;0.30;;;14.20;42.90;;;;;;4979330;28;20271;-70
2022/02/26 08:07:16;;;;;;;0.30;0.30;;;13.80;41.90;;;;;;4996705;28;20419;-70
2022/02/26 08:09:43;;;;;;;0.30;0.30;;;12.60;42.70;;;;;;4996839;28;20231;-70
2022/02/26 08:12:09;;;;;;;0.30;0.30;;;11.90;45.00;;;;;;4996102;28;20204;-70
2022/02/26 08:14:37;;;;;;;0.30;0.30;;;12.80;44.70;;;;;;4996644;28;20208;-70
2022/02/26 08:17:03;;;;;;;0.30;0.30;;;13.30;43.90;;;;;;4996653;28;20160;-70
2022/02/26 08:19:28;;;;;;;0.30;0.30;;;13.30;43.50;;;;;;4996719;28;20176;-70
2022/02/26 08:21:54;;;;;;;0.30;0.30;;;13.70;42.70;;;;;;4978951;28;20646;-70
2022/02/26 08:24:20;;;;;;;0.30;0.30;;;14.70;42.70;;;;;;4996649;28;20181;-70
2022/02/26 08:26:45;;;;;;;0.30;0.30;;;15.60;41.00;;;;;;4996393;28;20255;-70
2022/02/26 08:29:12;;;;;;;0.50;0.50;;;15.40;39.90;;;;;;4996419;28;20169;-70
2022/02/26 08:31:37;;;;;;;0.30;0.30;;;14.70;39.80;;;;;;4996214;28;20196;-70
2022/02/26 08:34:03;;;;;;;0.30;0.30;;;14.60;41.40;;;;;;4996205;28;20964;-70
2022/02/26 08:36:29;;;;;;;0.30;0.30;;;15.20;41.20;;;;;;4996246;28;20177;-70
2022/02/26 08:38:55;;;;;;;0.30;0.30;;;15.60;39.30;;;;;;4996440;28;20418;-70
2022/02/26 08:41:21;;;;;;;0.37;0.37;;;15.70;39.10;;;;;;4996023;28;20411;-70
2022/02/26 08:43:46;;;;;;;0.30;0.30;;;15.60;38.10;;;;;;4996021;28;20633;-70
2022/02/26 08:46:12;;;;;;;0.30;0.30;;;15.60;38.10;;;;;;4996130;28;20172;-70
2022/02/26 08:48:38;;;;;;;0.40;0.40;;;14.60;38.00;;;;;;4996142;28;20207;-70
2022/02/26 08:51:04;;;;;;;0.30;0.30;;;13.60;39.80;;;;;;4995853;28;20168;-70
2022/02/26 08:53:30;;;;;;;0.30;0.30;;;14.00;41.60;;;;;;4995907;28;20455;-70
2022/02/26 08:55:55;;;;;;;0.30;0.30;;;14.40;40.60;;;;;;4996034;28;20433;-70
2022/02/26 08:58:22;;;;;;;0.30;0.30;;;15.60;38.90;;;;;;4995860;28;20251;-70
2022/02/26 09:00:49;;;;;;;0.30;0.30;;;15.70;38.00;;;;;;4995779;28;20175;-70
2022/02/26 09:03:15;;;;;;;0.30;0.30;;;16.70;38.20;;;;;;4995664;28;20934;-70
2022/02/26 09:05:41;;;;;;;0.30;0.30;;;18.60;35.50;;;;;;4995563;28;20458;-71
2022/02/26 09:08:07;;;;;;;0.30;0.30;;;19.20;33.30;;;;;;4995549;28;20422;-71
2022/02/26 09:10:33;;;;;;;0.30;0.30;;;19.70;32.80;;;;;;4995616;28;20760;-71
2022/02/26 09:12:59;;;;;;;0.30;0.30;;;20.60;31.90;;;;;;4995259;28;20211;-71
2022/02/26 09:15:25;;;;;;;0.30;0.30;;;21.10;30.80;;;;;;4995740;28;20172;-71
2022/02/26 09:17:51;;;;;;;0.60;0.60;;;20.30;30.50;;;;;;4995355;28;20167;-71
2022/02/26 09:20:17;;;;;;;0.30;0.30;;;18.40;31.00;;;;;;4995213;28;20410;-71
2022/02/26 09:22:42;;;;;;;0.40;0.40;;;18.30;32.70;;;;;;4995482;28;20847;-70
2022/02/26 09:25:09;;;;;;;0.30;0.30;;;17.90;32.40;;;;;;4994928;28;20653;-71
2022/02/26 09:27:35;;;;;;;0.30;0.30;;;17.00;32.50;;;;;;4995915;28;20172;-70
2022/02/26 09:30:01;;;;;;;0.40;0.40;;;15.90;32.90;;;;;;4995265;28;20403;-71
2022/02/26 09:32:30;;;;;;;0.30;0.30;;;15.20;33.50;;;;;;4995223;28;20510;-71
2022/02/26 09:34:56;;;;;;;0.40;0.40;;;14.50;34.70;;;;;;4995054;28;20963;-70
2022/02/26 09:37:22;;;;;;;0.30;0.30;;;13.40;36.40;;;;;;4995078;28;20422;-70
2022/02/26 09:39:48;;;;;;;0.30;0.30;;;11.80;37.00;;;;;;4995257;28;20407;-70
2022/02/26 09:42:14;;;;;;;0.30;0.30;;;8.70;41.30;;;;;;4994766;28;20200;-70
2022/02/26 09:44:39;;;;;;;0.30;0.30;;;8.00;47.50;;;;;;4994948;28;20179;-70
2022/02/26 09:47:05;;;;;;;0.30;0.30;;;8.20;46.80;;;;;;4977643;28;20411;-70
2022/02/26 09:49:31;;;;;;;0.30;0.30;;;8.90;45.80;;;;;;4977333;28;20250;-70
2022/02/26 09:51:57;;;;;;;0.30;0.30;;;9.10;43.40;;;;;;4994623;28;20431;-70
2022/02/26 09:54:23;;;;;;;0.40;0.40;;;9.40;44.30;;;;;;4994730;28;20243;-70
2022/02/26 09:56:49;;;;;;;0.30;0.30;;;10.80;41.30;;;;;;4994950;28;20184;-70
2022/02/26 09:59:15;;;;;;;0.40;0.40;;;11.60;39.50;;;;;;4994809;28;20165;-70
2022/02/26 10:02:06;;;;;;;0.30;0.30;;;12.30;39.90;;;;;;4994459;28;20192;-71
2022/02/26 10:04:34;;;;;;;0.30;0.30;;;14.80;38.10;;;;;;4994777;28;20447;-71
2022/02/26 10:07:17;;;;;;;0.30;0.30;;;16.90;33.80;;;;;;4994541;28;20415;-71
2022/02/26 10:09:47;;;;;;;0.30;0.30;;;16.10;30.80;;;;;;4994690;28;20404;-70
2022/02/26 10:12:31;;;;;;;0.30;0.30;;;15.30;31.10;;;;;;4994170;28;20503;-70
2022/02/26 10:14:59;;;;;;;0.30;0.30;;;14.70;32.70;;;;;;4994587;28;20454;-70
2022/02/26 10:17:32;;;;;;;0.30;0.30;;;14.50;33.30;;;;;;4994461;28;20506;-70
2022/02/26 10:20:16;;;;;;;0.30;0.30;;;12.60;35.10;;;;;;4994319;28;20742;-70
2022/02/26 10:22:47;;;;;;;0.30;0.30;;;10.50;37.20;;;;;;4994331;28;20364;-70
2022/02/26 10:25:15;;;;;;;0.30;0.30;;;9.70;41.10;;;;;;4994509;28;20153;-70
2022/02/26 10:27:43;;;;;;;0.30;0.30;;;10.10;41.10;;;;;;4994471;28;20176;-70
2022/02/26 10:30:14;;;;;;;0.30;0.30;;;11.60;39.20;;;;;;4994235;28;20174;-70
2022/02/26 10:32:41;;;;;;;0.30;0.30;;;13.20;37.40;;;;;;4994197;28;20427;-70
2022/02/26 10:35:08;;;;;;;0.30;0.30;;;14.70;35.50;;;;;;4994229;28;20458;-70
2022/02/26 10:37:33;;;;;;;0.30;0.30;;;15.10;32.70;;;;;;4994511;28;20402;-70
2022/02/26 10:40:00;;;;;;;0.40;0.40;;;15.40;32.20;;;;;;4993904;28;20407;-71
2022/02/26 10:42:31;;;;;;;0.30;0.30;;;16.20;32.70;;;;;;4993989;28;20196;-70
2022/02/26 10:45:14;;;;;;;0.30;0.30;;;16.80;32.70;;;;;;4994286;28;20403;-70
2022/02/26 10:47:44;;;;;;;0.40;0.40;;;17.50;32.10;;;;;;4994284;28;20417;-71
2022/02/26 10:50:19;;;;;;;0.30;0.30;;;17.80;31.50;;;;;;4994251;28;20426;-70
2022/02/26 10:53:00;;;;;;;0.40;0.40;;;17.10;29.50;;;;;;4994171;28;20489;-70
2022/02/26 10:55:51;;;;;;;0.30;0.30;;;14.10;31.40;;;;;;4994054;28;20423;-70
2022/02/26 10:58:22;;;;;;;0.30;0.30;;;12.10;35.90;;;;;;4994142;28;20400;-70
2022/02/26 11:00:48;;;;;;;0.30;0.30;;;10.40;37.70;;;;;;4993941;28;20180;-70
2022/02/26 11:03:16;;;;;;;0.30;0.30;;;10.10;41.20;;;;;;4993863;28;20250;-70
2022/02/26 11:05:42;;;;;;;0.40;0.40;;;10.00;41.00;;;;;;4976489;28;20266;-70
2022/02/26 11:08:09;;;;;;;0.30;0.30;;;10.40;41.90;;;;;;4993841;28;20630;-71
2022/02/26 11:10:35;;;;;;;0.30;0.30;;;11.20;39.00;;;;;;4993765;28;20541;-70
2022/02/26 11:13:01;;;;;;;0.30;0.30;;;11.40;37.30;;;;;;4993547;28;20673;-71
2022/02/26 11:15:31;;;;;;;0.30;0.30;;;11.00;37.70;;;;;;4993730;28;20173;-70
2022/02/26 11:18:00;;;;;;;0.30;0.30;;;10.90;41.00;;;;;;4994000;28;20411;-71
2022/02/26 11:20:26;;;;;;;0.30;0.30;;;10.70;39.10;;;;;;4993571;28;20187;-70
2022/02/26 11:22:58;;;;;;;0.40;0.40;;;10.30;42.10;;;;;;4993845;28;20208;-71
2022/02/26 11:25:26;;;;;;;0.30;0.30;;;10.30;41.10;;;;;;4976200;28;20179;-70
2022/02/26 11:27:52;;;;;;;0.40;0.40;;;9.70;41.10;;;;;;4993754;28;20534;-70
2022/02/26 11:30:21;;;;;;;0.40;0.40;;;9.00;42.50;;;;;;4993513;28;20193;-71
2022/02/26 11:32:47;;;;;;;0.40;0.40;;;8.60;44.30;;;;;;4993661;28;20934;-71
2022/02/26 11:35:18;;;;;;;0.40;0.40;;;8.30;44.40;;;;;;4993717;28;20215;-71
2022/02/26 11:37:50;;;;;;;0.30;0.30;;;8.00;45.20;;;;;;4993848;28;20175;-70
2022/02/26 11:40:18;;;;;;;0.40;0.40;;;7.90;45.10;;;;;;4993615;28;20170;-70
2022/02/26 11:42:45;;;;;;;0.40;0.40;;;6.90;46.50;;;;;;4976068;28;20192;-70
2022/02/26 11:45:13;;;;;;;0.38;0.38;;;6.50;48.40;;;;;;4993569;28;20192;-70
2022/02/26 11:47:43;;;;;;;0.40;0.40;;;6.80;48.00;;;;;;4994380;28;20259;-70
2022/02/26 11:50:18;;;;;;;0.40;0.40;;;6.90;48.60;;;;;;4979559;28;20201;-70
2022/02/26 11:52:55;;;;;;;0.32;0.32;;;6.90;48.30;;;;;;4997200;28;20240;-72
2022/02/26 11:55:47;;;;;;;0.40;0.40;;;6.80;48.80;;;;;;4997403;28;20183;-70
2022/02/26 11:58:16;;;;;;;0.40;0.40;;;6.50;48.50;;;;;;4989778;28;20268;-70
2022/02/26 12:00:54;;;;;;;0.30;0.30;;;7.20;49.00;;;;;;4996637;28;20173;-70
2022/02/26 12:03:28;;;;;;;0.40;0.40;;;7.50;49.80;;;;;;4996764;28;20284;-70
2022/02/26 12:06:13;;;;;;;0.30;0.30;;;8.00;48.40;;;;;;4996807;28;20181;-70
2022/02/26 12:08:46;;;;;;;0.30;0.30;;;8.60;48.30;;;;;;4986469;28;20225;-70
2022/02/26 12:11:21;;;;;;;0.38;0.38;;;9.00;46.10;;;;;;4996349;28;20187;-70
2022/02/26 12:13:48;;;;;;;0.32;0.32;;;9.30;45.20;;;;;;4996325;28;20198;-70
2022/02/26 12:16:22;;;;;;;0.30;0.30;;;9.50;43.40;;;;;;4996523;28;20198;-70
2022/02/26 12:18:53;;;;;;;0.30;0.30;;;9.00;42.60;;;;;;4996759;28;20175;-70
2022/02/26 12:21:19;;;;;;;0.35;0.35;;;8.50;42.30;;;;;;4978866;28;20672;-70
2022/02/26 12:24:07;;;;;;;0.40;0.40;;;8.50;43.10;;;;;;4996423;28;20387;-70
2022/02/26 12:27:03;;;;;;;0.30;0.30;;;8.70;43.70;;;;;;4986792;28;20214;-70
2022/02/26 12:29:49;;;;;;;0.30;0.30;;;8.30;48.10;;;;;;4996669;28;20256;-70
2022/02/26 12:32:27;;;;;;;0.30;0.30;;;8.40;45.90;;;;;;4978782;28;20209;-70
2022/02/26 12:34:58;;;;;;;0.40;0.40;;;8.60;44.50;;;;;;4996482;28;20201;-70
2022/02/26 12:37:26;;;;;;;0.40;0.40;;;8.40;43.50;;;;;;4996366;28;20222;-70
2022/02/26 12:40:15;;;;;;;0.30;0.30;;;8.40;43.90;;;;;;4996394;28;20665;-70
2022/02/26 12:42:46;;;;;;;0.30;0.30;;;8.50;43.50;;;;;;4995618;28;20265;-70
2022/02/26 12:45:14;;;;;;;0.30;0.30;;;8.60;44.10;;;;;;4996151;28;20214;-70
2022/02/26 12:47:41;;;;;;;0.40;0.40;;;8.20;44.60;;;;;;4996291;28;20171;-72
2022/02/26 12:50:09;;;;;;;0.30;0.30;;;8.40;45.60;;;;;;4996056;28;20187;-70
2022/02/26 12:52:38;;;;;;;0.30;0.30;;;8.60;44.80;;;;;;4996013;28;20194;-70
2022/02/26 12:55:17;;;;;;;0.40;0.40;;;8.10;45.50;;;;;;4995888;28;20549;-70